KFST/FST METAR and TAF weather

Enter ICAO airport designator
Station Type Date Time Source
KFST METAR 2020/09/25 19:53 UTC NOAA

KFST 251953Z AUTO VRB03KT 10SM CLR 33/03 A2998 RMK AO2 SLP101 T03280028


Station Type Date Time Source
KFST Decoded METAR 2020/09/25 19:53 UTC NOAA

FORT STOCKTON PECOS CO AIRPORT , TX, United States (KFST) 30-55N 102-55W 918M
Sep 25, 2020 - 03:53 PM EDT / 2020.09.25 1953 UTC
Wind: Variable at 3 MPH (3 KT):0
Visibility: 10 mile(s):0
Sky conditions: clear
Temperature: 91.0 F (32.8 C)
Dew Point: 37.0 F (2.8 C)
Relative Humidity: 15%
Pressure (altimeter): 29.98 in. Hg (1015 hPa)
ob: KFST 251953Z AUTO VRB03KT 10SM CLR 33/03 A2998 RMK AO2 SLP101 T03280028
cycle: 20

Station Type Date Time Source
KFST TAF 2020/09/25 18:22 UTC NOAA

TAF KFST 251720Z 2518/2618 13009KT P6SM SKC
FM261200 17006KT P6SM SKC

Example: see airport list